Riverdale, New York
Current Conditions -  °F | °C
As of 4:51 AM on Wednesday 26 Nov 2014 (Local Time) from KLGA Reporting Station
Overcast Overcast  
Wind Chill: 45°   Ceiling: 11000
Heat Index: 49°   Visibility: 10mi
Dew Point: 29°   Wind: 10mph
Humidity: 46%   Direction: 350°N
Pressure: 30.11"   Gusts: NA
Location:  40.8999°N, 73.9028°W
Report Text: KLGA 260951Z 35009KT 10SM OVC110 09/M02 A3011 RMK AO2 SLP197 T00941017
Loading
Personal Weather Stations






























Interactive Weather Map New forecast layout! Learn more

10-Day Weather Forecast

Advertisements
Track Severe Weather on mobile